CW2789 Weather Reports


Display with metric or nautical units.
time (UTC)temp
F
wind
direction
speed
MPH
gust
MPH
rain 1hr
in
rain 24hr
in
rain mn
in
humidity
%
barometer
mb
20191207213547 62 58 0.0 0.0 0.00 0.28 0.15 69 1012.3
20191207212557 62 56 0.0 0.0 0.00 0.28 0.15 69 1012.7
20191207211543 62 0 0.0 7.0 0.00 0.28 0.15 69 1012.7
20191207161356 59 165 0.0 2.0 0.00 0.27 0.13 89 1014.6
20191207160412 59 335 0.0 1.0 0.00 0.27 0.13 89 1014.6
20191207155426 60 288 0.0 0.0 0.00 0.27 0.13 89 1014.4
20191207154356 60 20 3.0 0.0 0.00 0.27 0.13 89 1014.4
20191207153326 59 342 0.0 16.0 0.00 0.27 0.13 89 1014.4
20191207152335 59 164 0.0 12.0 0.00 0.27 0.13 89 1014.4
20191207151353 58 131 0.0 4.0 0.00 0.27 0.13 89 1014.6
20191207150351 58 181 0.0 0.0 0.00 0.27 0.13 89 1014.6
20191207145332 58 71 0.0 7.0 0.00 0.27 0.13 89 1014.5
20191207144257 58 205 0.0 6.0 0.00 0.27 0.13 89 1014.1
20191207143235 58 133 0.0 0.0 0.00 0.27 0.13 89 1014.1
20191207142210 58 168 0.0 1.0 0.00 0.27 0.13 89 1014.2
20191207141158 58 196 0.0 0.0 0.00 0.27 0.13 89 1014.0
20191207140131 57 291 0.0 0.0 0.00 0.27 0.13 89 1014.0
20191207135128 57 18 0.0 2.0 0.00 0.27 0.13 89 1014.4
20191207134059 57 93 0.0 4.0 0.00 0.27 0.13 89 1014.0
20191207133054 57 224 0.0 0.0 0.00 0.27 0.13 89 1014.0
20191207132103 57 99 0.0 6.0 0.00 0.27 0.13 89 1013.6
20191207131031 57 133 0.0 4.0 0.00 0.26 0.12 91 1013.8
20191207130021 57 272 0.0 0.0 0.00 0.26 0.12 91 1013.8
20191207125029 57 31 0.0 1.0 0.05 0.26 0.12 91 1013.9
20191207123954 57 88 0.0 4.0 0.00 0.23 0.10 91 1013.7
20191207122957 57 354 0.0 11.0 0.00 0.23 0.10 91 1013.7
20191207121956 58 138 0.0 0.0 0.00 0.23 0.10 91 1013.7
20191207121008 58 49 0.0 11.0 0.00 0.23 0.10 91 1013.8
20191207115944 58 89 0.0 6.0 0.04 0.23 0.09 91 1013.8
20191207114913 58 128 1.0 5.0 0.00 0.23 0.09 91 1013.8
20191207113920 57 90 0.0 7.0 0.00 0.22 0.08 91 1013.6
20191207112911 57 337 0.0 0.0 0.00 0.22 0.08 91 1013.7
20191207111902 57 30 0.0 0.0 0.00 0.20 0.06 91 1013.7
20191207110911 57 82 0.0 4.0 0.00 0.20 0.06 91 1013.4
20191207105853 57 289 1.0 4.0 0.00 0.20 0.06 91 1013.4
20191207104825 57 114 0.0 18.0 0.00 0.20 0.06 91 1013.4
20191207103804 57 160 0.0 18.0 0.00 0.20 0.06 91 1013.7
20191207102813 57 44 0.0 0.0 0.00 0.18 0.05 91 1013.8
20191207101826 56 123 2.0 11.0 0.00 0.18 0.05 91 1013.8
20191207100825 56 213 0.0 3.0 0.00 0.17 0.03 91 1013.6
20191207092847 56 140 0.0 2.0 0.00 0.17 0.03 90 1013.5
20191207091834 56 93 1.0 0.0 0.05 0.16 0.02 90 1013.5
20191207090802 56 90 0.0 0.0 0.05 0.16 0.02 90 1013.5
20191207085752 56 85 0.0 0.0 0.05 0.16 0.02 90 1013.5
20191207084726 56 114 0.0 0.0 0.05 0.16 0.02 90 1013.5
20191207083658 56 123 0.0 0.0 0.05 0.16 0.02 90 1013.7
20191207082635 55 79 1.0 6.0 0.05 0.16 0.02 83 1013.7
20191207081657 55 128 0.0 0.0 0.05 0.13 0.00 83 1013.7
20191207080636 55 137 2.0 5.0 0.05 0.13 0.00 83 1013.7
20191207075643 55 86 0.0 0.0 0.05 0.13 0.13 83 1013.9
20191207074637 55 134 0.0 7.0 0.05 0.13 0.13 83 1013.9
20191207073605 55 90 0.0 7.0 0.05 0.13 0.13 83 1014.1
20191207072559 55 152 0.0 6.0 0.05 0.12 0.12 83 1014.0
20191207071607 55 133 0.0 2.0 0.05 0.12 0.12 83 1014.0
20191207070540 55 116 0.0 0.0 0.05 0.09 0.10 83 1014.6
20191207065539 55 104 0.0 0.0 0.05 0.09 0.10 83 1014.6
20191207064532 55 119 0.0 2.0 0.05 0.09 0.10 83 1014.6
20191207063456 55 120 0.0 1.0 0.05 0.08 0.08 83 1014.4
20191207062443 55 131 3.0 6.0 0.05 0.06 0.06 83 1014.2
20191207061434 55 130 1.0 5.0 0.05 0.06 0.06 83 1014.2
20191207060412 55 134 0.0 4.0 0.04 0.06 0.06 83 1014.5
20191207055346 55 137 4.0 10.0 0.00 0.00 0.00 83 1014.5
20191207054350 55 99 0.0 0.0 0.00 0.00 0.00 83 1014.0
20191207042243 59 145 0.0 10.0 0.00 0.00 0.00 60 1013.6
20191206235231 62 136 0.0 5.0 0.00 0.00 0.00 63 1014.2
20191206234246 63 124 0.0 0.0 0.00 0.00 0.00 63 1014.1
20191206224220 65 127 0.0 0.0 0.00 0.00 0.00 88 1013.4
20191206223147 65 107 0.0 0.0 0.00 0.00 0.00 88 1013.4